Augusta, Michigan
Current Conditions -  °F | °C
As of 8:53 AM on Tuesday 21 Oct 2014 (Local Time) from KBTL Reporting Station
Overcast Overcast  
Wind Chill: 41°   Ceiling: 700
Heat Index: 46°   Visibility: 10mi
Dew Point: 43°   Wind: 10mph
Humidity: 89%   Direction: 350°N
Pressure: 30.04"   Gusts: NA
Location:  42.34°N, 85.35°W
Report Text: KBTL 211253Z 35009KT 10SM OVC007 08/06 A3004 RMK AO2 RAE46 CIG 005V011 SLP174 P0000 T00780061
Loading
Personal Weather Stations






























Interactive Weather Map
Tropical Storm Tracking
New forecast layout! Learn more

10-Day Weather Forecast

Advertisements
Track Severe Weather on mobile